createdAt,value
2018-06-03T00:00:13.681Z,24.67
2018-06-03T00:02:42.760Z,24.23
2018-06-03T00:05:11.868Z,24.40
2018-06-03T00:07:41.012Z,26.30
2018-06-03T00:10:10.131Z,26.03
2018-06-03T00:12:39.211Z,25.70
2018-06-03T00:15:08.351Z,28.77
2018-06-03T00:17:37.475Z,25.90
2018-06-03T00:22:42.780Z,29.33
2018-06-03T00:25:12.659Z,27.77
2018-06-03T00:27:41.786Z,27.70
2018-06-03T00:30:10.911Z,28.33
2018-06-03T00:32:40.764Z,26.90
2018-06-03T00:35:10.666Z,26.70
2018-06-03T00:37:40.558Z,27.00
2018-06-03T00:40:09.684Z,26.97
2018-06-03T00:42:38.762Z,28.13
2018-06-03T00:45:07.840Z,30.50
2018-06-03T00:47:37.744Z,27.07
2018-06-03T00:50:06.820Z,27.03
2018-06-03T00:52:35.899Z,27.00
2018-06-03T00:55:05.889Z,28.27
2018-06-03T00:57:34.979Z,29.87
2018-06-03T01:00:04.089Z,27.30
2018-06-03T01:02:33.233Z,28.60
2018-06-03T01:05:02.351Z,26.20
2018-06-03T01:07:31.529Z,26.07
2018-06-03T01:10:00.607Z,26.20
2018-06-03T01:12:29.802Z,25.80
2018-06-03T01:14:59.656Z,27.33
2018-06-03T01:17:28.765Z,30.53
2018-06-03T01:19:57.847Z,28.70
2018-06-03T01:22:27.818Z,26.97
2018-06-03T01:24:56.895Z,30.20
2018-06-03T01:27:26.764Z,28.00
2018-06-03T01:29:55.882Z,29.60
2018-06-03T01:32:24.980Z,27.47
2018-06-03T01:34:54.091Z,29.73
2018-06-03T01:37:23.235Z,27.40
2018-06-03T01:39:52.321Z,29.10
2018-06-03T01:42:21.487Z,28.00
2018-06-03T01:44:51.337Z,28.63
2018-06-03T01:47:20.494Z,29.67
2018-06-03T01:49:49.625Z,29.63
2018-06-03T01:52:19.503Z,30.13
2018-06-03T01:54:48.607Z,30.27
2018-06-03T01:57:17.728Z,27.07
2018-06-03T01:59:46.839Z,27.13
2018-06-03T02:02:15.982Z,30.13
2018-06-03T02:04:45.102Z,28.00
2018-06-03T02:07:14.975Z,28.90
2018-06-03T02:09:44.053Z,29.23
2018-06-03T02:12:13.943Z,29.47
2018-06-03T02:14:43.086Z,29.53
2018-06-03T02:17:12.969Z,30.77
2018-06-03T02:19:42.079Z,28.63
2018-06-03T02:22:11.193Z,29.63
2018-06-03T02:24:40.271Z,29.03
2018-06-03T02:27:09.348Z,28.70
2018-06-03T02:29:38.471Z,29.80
2018-06-03T02:32:08.343Z,30.80
2018-06-03T02:34:37.456Z,27.50
2018-06-03T02:37:06.538Z,30.70
2018-06-03T02:39:35.717Z,29.57
2018-06-03T02:42:05.597Z,29.30
2018-06-03T02:44:34.713Z,30.07
2018-06-03T02:47:03.828Z,28.60
2018-06-03T02:49:32.906Z,27.90
2018-06-03T02:52:02.792Z,28.87
2018-06-03T02:54:31.880Z,31.60
2018-06-03T02:57:01.033Z,29.20
2018-06-03T02:59:30.136Z,28.83
2018-06-03T03:01:59.236Z,27.10
2018-06-03T03:04:28.340Z,29.40
2018-06-03T03:06:57.484Z,29.90
2018-06-03T03:09:27.362Z,29.70
2018-06-03T03:11:56.507Z,30.70
2018-06-03T03:14:25.657Z,29.40
2018-06-03T03:16:54.811Z,29.13
2018-06-03T03:19:23.905Z,29.33
2018-06-03T03:21:53.030Z,30.73
2018-06-03T03:24:22.150Z,29.60
2018-06-03T03:26:51.272Z,28.67
2018-06-03T03:29:20.412Z,30.40
2018-06-03T03:31:50.662Z,29.50
2018-06-03T03:34:19.813Z,29.30
2018-06-03T03:36:48.891Z,26.07
2018-06-03T03:39:17.977Z,25.63
2018-06-03T03:41:47.867Z,28.63
2018-06-03T03:44:16.978Z,27.03
2018-06-03T03:46:46.097Z,27.57
2018-06-03T03:49:15.204Z,26.43
2018-06-03T03:51:44.384Z,26.50
2018-06-03T03:54:13.514Z,26.13
2018-06-03T03:56:42.593Z,27.00
2018-06-03T03:59:53.505Z,28.50
2018-06-03T04:02:23.924Z,26.43
2018-06-03T04:04:54.242Z,24.90
2018-06-03T04:07:24.581Z,25.53
2018-06-03T04:09:54.861Z,28.07
2018-06-03T04:12:25.503Z,28.20
2018-06-03T04:14:55.757Z,25.67
2018-06-03T04:17:26.202Z,26.77
2018-06-03T04:19:56.527Z,24.83
2018-06-03T04:22:26.953Z,25.20
2018-06-03T04:24:57.261Z,26.40
2018-06-03T04:27:27.375Z,26.47
2018-06-03T04:29:57.600Z,24.53
2018-06-03T04:32:28.399Z,23.70
2018-06-03T04:34:58.705Z,25.47
2018-06-03T04:37:29.089Z,27.47
2018-06-03T04:39:59.369Z,25.13
2018-06-03T04:42:30.085Z,25.90
2018-06-03T04:45:00.341Z,24.50
2018-06-03T04:47:30.744Z,25.27
2018-06-03T04:50:01.001Z,24.87
2018-06-03T04:52:31.629Z,26.40
2018-06-03T04:55:01.902Z,23.20
2018-06-03T04:57:32.250Z,26.03
2018-06-03T05:00:02.568Z,25.17
2018-06-03T05:02:33.045Z,25.27
2018-06-03T05:05:03.395Z,25.20
2018-06-03T05:07:33.747Z,25.23
2018-06-03T05:10:03.901Z,25.90
2018-06-03T05:12:34.479Z,24.87
2018-06-03T05:15:04.833Z,26.25
2018-06-03T05:17:35.216Z,26.63
2018-06-03T05:20:05.666Z,24.70
2018-06-03T05:22:36.068Z,27.20
2018-06-03T05:25:06.427Z,23.93
2018-06-03T05:27:36.429Z,25.33
2018-06-03T05:30:07.377Z,25.80
2018-06-03T05:32:38.089Z,27.47
2018-06-03T05:35:08.422Z,30.03
2018-06-03T05:37:38.783Z,28.13
2018-06-03T05:40:09.097Z,26.93
2018-06-03T05:42:39.821Z,27.13
2018-06-03T05:45:09.808Z,26.17
2018-06-03T05:47:40.007Z,25.80
2018-06-03T05:50:10.021Z,26.83
2018-06-03T05:52:40.294Z,25.10
2018-06-03T05:55:10.537Z,26.00
2018-06-03T05:57:40.889Z,25.67
2018-06-03T06:00:11.119Z,25.77
2018-06-03T06:02:41.655Z,27.70
2018-06-03T06:05:11.953Z,25.67
2018-06-03T06:07:42.605Z,26.57
2018-06-03T06:10:12.623Z,27.00
2018-06-03T06:12:42.876Z,24.50
2018-06-03T06:15:13.194Z,25.70
2018-06-03T06:17:43.596Z,23.40
2018-06-03T06:20:13.951Z,26.30
2018-06-03T06:22:44.354Z,24.97
2018-06-03T06:25:14.820Z,24.90
2018-06-03T06:27:45.368Z,27.60
2018-06-03T06:30:15.704Z,26.97
2018-06-03T06:32:46.027Z,26.40
2018-06-03T06:35:16.673Z,25.53
2018-06-03T06:37:47.066Z,26.20
2018-06-03T06:40:17.457Z,26.27
2018-06-03T06:42:47.780Z,27.50
2018-06-03T06:45:18.114Z,25.83
2018-06-03T06:47:48.245Z,27.73
2018-06-03T06:50:18.441Z,25.90
2018-06-03T06:52:48.786Z,25.77
2018-06-03T06:55:19.171Z,25.37
2018-06-03T06:57:49.639Z,24.90
2018-06-03T07:00:19.968Z,26.60
2018-06-03T07:02:50.365Z,26.70
2018-06-03T07:05:20.725Z,26.83
2018-06-03T07:07:50.827Z,26.10
2018-06-03T07:10:21.080Z,26.37
2018-06-03T07:12:51.852Z,26.83
2018-06-03T07:15:22.231Z,26.30
2018-06-03T07:17:52.843Z,26.60
2018-06-03T07:20:22.846Z,29.47
2018-06-03T07:22:53.092Z,26.30
2018-06-03T07:25:23.392Z,28.13
2018-06-03T07:27:53.813Z,26.73
2018-06-03T07:30:24.225Z,25.33
2018-06-03T07:32:54.190Z,25.83
2018-06-03T07:35:24.374Z,25.97
2018-06-03T07:37:55.298Z,25.33
2018-06-03T07:40:25.615Z,26.73
2018-06-03T07:42:55.941Z,27.07
2018-06-03T07:45:26.383Z,25.93
2018-06-03T07:47:56.741Z,25.70
2018-06-03T07:50:27.260Z,25.40
2018-06-03T07:52:57.694Z,26.03
2018-06-03T07:55:27.707Z,23.77
2018-06-03T07:57:58.001Z,24.70
2018-06-03T08:00:28.349Z,25.90
2018-06-03T08:02:58.767Z,24.80
2018-06-03T08:05:29.105Z,23.80
2018-06-03T08:07:59.529Z,27.47
2018-06-03T08:10:30.039Z,26.73
2018-06-03T08:13:00.889Z,24.23
2018-06-03T08:15:31.179Z,26.20
2018-06-03T08:18:01.609Z,27.00
2018-06-03T08:20:31.969Z,26.40
2018-06-03T08:23:02.370Z,27.93
2018-06-03T08:25:32.728Z,23.93
2018-06-03T08:28:03.096Z,25.97
2018-06-03T08:30:33.553Z,26.93
2018-06-03T08:33:03.968Z,25.13
2018-06-03T08:35:34.318Z,25.23
2018-06-03T08:38:04.671Z,25.90
2018-06-03T08:40:35.164Z,23.77
2018-06-03T08:43:05.187Z,23.70
2018-06-03T08:45:35.470Z,26.33
2018-06-03T08:48:05.812Z,27.80
2018-06-03T08:50:36.399Z,24.40
2018-06-03T08:53:06.803Z,25.83
2018-06-03T08:55:37.163Z,24.07
2018-06-03T08:58:07.553Z,22.97
2018-06-03T09:00:37.928Z,21.43
2018-06-03T09:03:08.813Z,23.10
2018-06-03T09:05:39.086Z,23.50
2018-06-03T09:08:09.574Z,21.70
2018-06-03T09:10:39.944Z,20.40
2018-06-03T09:13:10.299Z,19.67
2018-06-03T09:15:40.606Z,21.20
2018-06-03T09:18:11.029Z,19.90
2018-06-03T09:20:41.370Z,18.83
2018-06-03T09:23:11.712Z,18.93
2018-06-03T09:25:42.068Z,19.30
2018-06-03T09:28:12.498Z,19.20
2018-06-03T09:30:42.840Z,19.27
2018-06-03T09:33:13.224Z,20.93
2018-06-03T09:35:44.286Z,20.70
2018-06-03T09:38:14.584Z,19.07
2018-06-03T09:40:44.985Z,19.17
2018-06-03T09:43:15.336Z,19.77
2018-06-03T09:45:45.611Z,21.70
2018-06-03T09:48:15.974Z,21.87
2018-06-03T09:50:46.323Z,24.23
2018-06-03T09:53:16.729Z,20.80
2018-06-03T09:55:47.206Z,23.27
2018-06-03T09:58:17.532Z,20.27
2018-06-03T10:00:47.980Z,23.00
2018-06-03T10:03:18.285Z,21.70
2018-06-03T10:05:48.700Z,21.37
2018-06-03T10:08:19.007Z,23.87
2018-06-03T10:10:49.585Z,19.57
2018-06-03T10:13:20.007Z,21.53
2018-06-03T10:15:50.644Z,23.17
2018-06-03T10:18:21.033Z,22.77
2018-06-03T10:20:51.468Z,21.30
2018-06-03T10:23:21.791Z,21.37
2018-06-03T10:25:52.395Z,21.93
2018-06-03T10:28:22.354Z,22.60
2018-06-03T10:30:52.615Z,25.20
2018-06-03T10:33:22.984Z,22.17
2018-06-03T10:35:53.424Z,22.70
2018-06-03T10:38:23.689Z,25.03
2018-06-03T10:40:54.116Z,24.93
2018-06-03T10:43:25.365Z,23.30
2018-06-03T10:45:55.833Z,23.93
2018-06-03T10:48:26.549Z,22.13
2018-06-03T10:50:57.365Z,23.67
2018-06-03T10:53:28.222Z,23.13
2018-06-03T10:55:58.246Z,21.93
2018-06-03T10:58:28.932Z,20.83
2018-06-03T11:00:59.358Z,19.77
2018-06-03T11:03:29.713Z,18.77
2018-06-03T11:06:00.170Z,19.77
2018-06-03T11:08:30.236Z,18.00
2018-06-03T11:11:00.636Z,18.20
2018-06-03T11:13:31.137Z,18.33
2018-06-03T11:16:01.741Z,19.63
2018-06-03T11:18:31.736Z,18.90
2018-06-03T11:21:02.342Z,20.80
2018-06-03T11:23:32.733Z,19.80
2018-06-03T11:26:03.072Z,22.00
2018-06-03T11:28:33.464Z,21.77
2018-06-03T11:31:04.099Z,18.90
2018-06-03T11:33:34.476Z,19.90
2018-06-03T11:36:05.865Z,18.97
2018-06-03T11:38:36.246Z,19.10
2018-06-03T11:41:07.076Z,18.50
2018-06-03T11:43:37.201Z,18.90
2018-06-03T11:46:07.471Z,21.40
2018-06-03T11:48:37.815Z,19.80
2018-06-03T11:51:08.195Z,21.17
2018-06-03T11:53:38.700Z,20.67
2018-06-03T11:56:09.135Z,20.13
2018-06-03T11:58:56.524Z,19.37
2018-06-03T12:01:27.212Z,18.87
2018-06-03T12:03:57.797Z,19.60
2018-06-03T12:06:28.401Z,18.77
2018-06-03T12:08:58.695Z,17.50
2018-06-03T12:11:29.069Z,17.07
2018-06-03T12:13:59.437Z,16.63
2018-06-03T12:16:29.785Z,16.00
2018-06-03T12:19:00.547Z,18.50
2018-06-03T12:21:31.235Z,17.13
2018-06-03T12:24:02.077Z,16.77
2018-06-03T12:26:32.850Z,14.43
2018-06-03T12:29:02.887Z,14.23
2018-06-03T12:31:33.180Z,15.27
2018-06-03T12:34:04.093Z,15.90
2018-06-03T12:36:34.475Z,16.77
2018-06-03T12:39:09.459Z,15.70
2018-06-03T12:41:39.968Z,14.23
2018-06-03T12:44:10.273Z,12.97
2018-06-03T12:46:40.599Z,12.50
2018-06-03T12:49:10.903Z,11.00
2018-06-03T12:51:41.196Z,10.03
2018-06-03T12:54:11.986Z,10.40
2018-06-03T12:56:42.329Z,8.90
2018-06-03T12:59:12.754Z,8.30
2018-06-03T13:01:43.036Z,8.43
2018-06-03T13:04:13.053Z,8.60
2018-06-03T13:06:44.212Z,8.80
2018-06-03T13:09:15.364Z,6.57
2018-06-03T13:11:45.796Z,6.90
2018-06-03T13:14:16.114Z,7.97
2018-06-03T13:16:46.670Z,6.77
2018-06-03T13:19:17.065Z,6.75
2018-06-03T13:21:47.376Z,5.93
2018-06-03T13:24:17.688Z,5.87
2018-06-03T13:26:48.064Z,6.47
2018-06-03T13:29:18.123Z,6.70
2018-06-03T13:31:48.346Z,5.30
2018-06-03T13:34:18.323Z,7.17
2018-06-03T13:36:48.533Z,6.13
2018-06-03T13:39:18.940Z,5.57
2018-06-03T13:41:49.373Z,6.00
2018-06-03T13:44:19.705Z,5.07
2018-06-03T13:46:50.051Z,5.23
2018-06-03T13:49:20.525Z,5.30
2018-06-03T13:51:50.881Z,4.53
2018-06-03T13:54:21.657Z,4.57
2018-06-03T13:56:51.946Z,4.40
2018-06-03T13:59:22.388Z,4.10
2018-06-03T14:01:53.050Z,4.30
2018-06-03T14:04:23.458Z,4.43
2018-06-03T14:06:53.993Z,5.03
2018-06-03T14:09:24.472Z,5.40
2018-06-03T14:11:55.212Z,4.00
2018-06-03T14:14:25.220Z,4.73
2018-06-03T14:16:55.440Z,4.73
2018-06-03T14:19:25.809Z,4.03
2018-06-03T14:21:56.116Z,4.37
2018-06-03T14:24:26.655Z,3.70
2018-06-03T14:26:56.948Z,3.97
2018-06-03T14:29:27.725Z,4.40
2018-06-03T14:31:58.099Z,3.53
2018-06-03T14:34:28.383Z,3.30
2018-06-03T14:36:58.713Z,3.47
2018-06-03T14:39:29.118Z,4.07
2018-06-03T14:41:59.440Z,3.40
2018-06-03T14:44:29.817Z,3.80
2018-06-03T14:47:00.157Z,2.83
2018-06-03T14:49:30.294Z,3.40
2018-06-03T14:52:00.556Z,3.67
2018-06-03T14:54:30.908Z,3.50
2018-06-03T14:57:01.621Z,3.63
2018-06-03T14:59:31.911Z,3.73
2018-06-03T15:02:01.992Z,3.13
2018-06-03T15:04:32.300Z,3.37
2018-06-03T15:07:02.643Z,4.07
2018-06-03T15:09:32.946Z,3.27
2018-06-03T15:12:03.300Z,3.10
2018-06-03T15:14:33.682Z,3.23
2018-06-03T15:17:03.973Z,4.00
2018-06-03T15:19:34.322Z,3.90
2018-06-03T15:22:04.824Z,3.33
2018-06-03T15:24:35.187Z,3.93
2018-06-03T15:27:05.560Z,3.83
2018-06-03T15:29:35.973Z,3.70
2018-06-03T15:32:06.453Z,4.60
2018-06-03T15:34:36.814Z,4.00
2018-06-03T15:37:06.787Z,3.90
2018-06-03T15:39:37.009Z,3.80
2018-06-03T15:42:07.628Z,3.87
2018-06-03T15:44:37.949Z,4.03
2018-06-03T15:47:08.299Z,4.07
2018-06-03T15:49:38.578Z,5.50
2018-06-03T15:52:09.361Z,4.77
2018-06-03T15:54:39.609Z,4.87
2018-06-03T15:57:09.983Z,5.30
2018-06-03T15:59:40.020Z,4.43
2018-06-03T16:02:10.408Z,3.70
2018-06-03T16:04:40.744Z,4.80
2018-06-03T16:07:11.185Z,4.23
2018-06-03T16:09:41.164Z,5.00
2018-06-03T16:12:11.493Z,4.60
2018-06-03T16:14:41.864Z,4.43
2018-06-03T16:17:11.822Z,4.67
2018-06-03T16:19:41.651Z,4.73
2018-06-03T16:22:11.996Z,4.10
2018-06-03T16:24:42.480Z,4.90
2018-06-03T16:27:12.738Z,4.67
2018-06-03T16:29:42.702Z,4.13
2018-06-03T16:32:12.880Z,5.13
2018-06-03T16:34:43.340Z,5.33
2018-06-03T16:37:13.409Z,4.30
2018-06-03T16:39:43.565Z,5.10
2018-06-03T16:42:13.868Z,5.93
2018-06-03T16:44:45.488Z,5.00
2018-06-03T16:47:15.981Z,5.80
2018-06-03T16:49:46.270Z,5.87
2018-06-03T16:52:17.298Z,6.30
2018-06-03T16:54:47.654Z,6.13
2018-06-03T16:57:18.106Z,6.10
2018-06-03T16:59:48.499Z,5.57
2018-06-03T17:02:18.871Z,5.30
2018-06-03T17:04:49.341Z,6.47
2018-06-03T17:07:19.720Z,5.33
2018-06-03T17:09:50.113Z,6.53
2018-06-03T17:12:20.221Z,6.57
2018-06-03T17:14:50.476Z,6.10
2018-06-03T17:17:20.837Z,7.13
2018-06-03T17:19:51.188Z,7.10
2018-06-03T17:22:21.276Z,6.63
2018-06-03T17:24:51.509Z,7.30
2018-06-03T17:27:21.924Z,8.50
2018-06-03T17:29:52.269Z,7.93
2018-06-03T17:32:22.684Z,8.43
2018-06-03T17:34:52.723Z,8.57
2018-06-03T17:37:22.963Z,8.20
2018-06-03T17:39:53.260Z,8.03
2018-06-03T17:42:23.781Z,8.73
2018-06-03T17:44:54.281Z,10.10
2018-06-03T17:47:24.639Z,9.07
2018-06-03T17:49:54.934Z,8.40
2018-06-03T17:52:25.313Z,8.50
2018-06-03T17:54:55.711Z,8.87
2018-06-03T17:57:26.086Z,8.23
2018-06-03T17:59:56.354Z,8.60
2018-06-03T18:02:26.746Z,9.30
2018-06-03T18:04:58.459Z,7.93
2018-06-03T18:07:29.770Z,8.83
2018-06-03T18:10:00.674Z,8.67
2018-06-03T18:12:31.582Z,8.27
2018-06-03T18:15:01.773Z,9.43
2018-06-03T18:17:32.753Z,9.13
2018-06-03T18:20:03.106Z,8.37
2018-06-03T18:22:33.480Z,9.60
2018-06-03T18:25:03.985Z,8.70
2018-06-03T18:27:34.321Z,9.47
2018-06-03T18:30:04.780Z,9.00
2018-06-03T18:32:34.897Z,7.73
2018-06-03T18:35:05.129Z,9.53
2018-06-03T18:37:35.414Z,9.43
2018-06-03T18:40:05.749Z,8.53
2018-06-03T18:42:36.174Z,8.83
2018-06-03T18:45:06.449Z,10.83
2018-06-03T18:47:36.882Z,8.67
2018-06-03T18:50:07.194Z,9.17
2018-06-03T18:52:37.427Z,7.90
2018-06-03T18:55:07.667Z,7.67
2018-06-03T18:57:37.736Z,7.93
2018-06-03T19:00:07.902Z,8.77
2018-06-03T19:02:38.472Z,8.50
2018-06-03T19:05:08.927Z,8.37
2018-06-03T19:07:39.188Z,8.43
2018-06-03T19:10:09.611Z,8.73
2018-06-03T19:12:39.967Z,7.73
2018-06-03T19:15:10.405Z,8.57
2018-06-03T19:17:40.772Z,9.30
2018-06-03T19:20:11.215Z,8.97
2018-06-03T19:22:42.004Z,9.57
2018-06-03T19:25:12.355Z,8.03
2018-06-03T19:27:42.520Z,8.53
2018-06-03T19:30:12.727Z,10.00
2018-06-03T19:32:43.473Z,8.57
2018-06-03T19:35:13.645Z,10.10
2018-06-03T19:37:43.957Z,10.23
2018-06-03T19:40:14.261Z,9.20
2018-06-03T19:42:44.743Z,10.00
2018-06-03T19:45:15.114Z,9.57
2018-06-03T19:47:45.529Z,10.83
2018-06-03T19:50:15.940Z,10.93
2018-06-03T19:52:46.419Z,10.47
2018-06-03T19:55:16.912Z,10.17
2018-06-03T19:57:47.463Z,9.93
2018-06-03T20:00:18.047Z,8.70
2018-06-03T20:02:48.427Z,9.60
2018-06-03T20:05:18.861Z,10.13
2018-06-03T20:07:49.484Z,10.93
2018-06-03T20:10:20.070Z,12.80
2018-06-03T20:12:50.497Z,10.10
2018-06-03T20:15:21.427Z,10.93
2018-06-03T20:17:54.398Z,10.10
2018-06-03T20:20:24.527Z,10.50
2018-06-03T20:22:54.842Z,10.40
2018-06-03T20:25:25.528Z,11.13
2018-06-03T20:27:56.401Z,10.00
2018-06-03T20:33:25.439Z,10.73
2018-06-03T20:35:55.873Z,10.93
2018-06-03T20:38:26.153Z,10.33
2018-06-03T20:40:56.590Z,11.77
2018-06-03T20:43:27.050Z,12.40
2018-06-03T20:45:57.456Z,10.53
2018-06-03T20:48:27.900Z,11.20
2018-06-03T20:50:58.243Z,11.43
2018-06-03T20:53:28.569Z,10.00
2018-06-03T20:55:59.011Z,12.67
2018-06-03T20:58:29.317Z,10.97
2018-06-03T21:00:59.980Z,10.90
2018-06-03T21:03:31.284Z,13.40
2018-06-03T21:06:01.739Z,13.50
2018-06-03T21:08:32.080Z,13.97
2018-06-03T21:11:02.385Z,14.57
2018-06-03T21:13:32.666Z,13.10
2018-06-03T21:16:03.229Z,15.10
2018-06-03T21:18:33.258Z,13.90
2018-06-03T21:21:03.473Z,14.70
2018-06-03T21:23:33.843Z,14.30
2018-06-03T21:26:03.918Z,13.40
2018-06-03T21:28:34.127Z,13.60
2018-06-03T21:31:04.212Z,14.40
2018-06-03T21:33:34.383Z,15.60
2018-06-03T21:36:04.433Z,13.23
2018-06-03T21:38:34.535Z,13.00
2018-06-03T21:41:05.258Z,12.57
2018-06-03T21:43:35.563Z,12.90
2018-06-03T21:46:06.056Z,12.43
2018-06-03T21:48:36.409Z,13.90
2018-06-03T21:51:06.758Z,13.53
2018-06-03T21:53:37.086Z,14.90
2018-06-03T21:56:07.784Z,13.97
2018-06-03T21:58:38.165Z,12.70
2018-06-03T22:01:08.491Z,13.53
2018-06-03T22:03:38.853Z,13.03
2018-06-03T22:06:09.263Z,12.10
2018-06-03T22:08:39.697Z,12.00
2018-06-03T22:11:10.273Z,14.53
2018-06-03T22:13:40.721Z,13.73
2018-06-03T22:16:11.053Z,15.00
2018-06-03T22:18:41.340Z,14.20
2018-06-03T22:21:11.778Z,14.50
2018-06-03T22:23:42.056Z,13.87
2018-06-03T22:26:12.498Z,14.87
2018-06-03T22:28:42.819Z,15.67
2018-06-03T22:31:13.288Z,14.80
2018-06-03T22:33:43.621Z,14.93
2018-06-03T22:36:13.935Z,16.37
2018-06-03T22:38:44.341Z,14.37
2018-06-03T22:41:14.904Z,15.23
2018-06-03T22:43:45.183Z,15.60
2018-06-03T22:46:15.776Z,14.93
2018-06-03T22:48:46.095Z,14.57
2018-06-03T22:51:16.504Z,15.67
2018-06-03T22:53:46.885Z,15.40
2018-06-03T22:56:17.036Z,16.23
2018-06-03T22:58:47.268Z,15.83
2018-06-03T23:01:17.415Z,14.97
2018-06-03T23:03:47.638Z,16.97
2018-06-03T23:06:18.053Z,15.90
2018-06-03T23:08:48.438Z,15.57
2018-06-03T23:11:18.745Z,16.60
2018-06-03T23:13:48.789Z,16.53
2018-06-03T23:16:19.005Z,18.00
2018-06-03T23:18:49.520Z,17.70
2018-06-03T23:21:20.015Z,16.13
2018-06-03T23:23:50.059Z,16.77
2018-06-03T23:26:20.224Z,16.70
2018-06-03T23:28:50.857Z,15.77
2018-06-03T23:31:21.233Z,17.50
2018-06-03T23:33:51.541Z,16.57
2018-06-03T23:36:21.899Z,15.50
2018-06-03T23:38:52.226Z,17.43
2018-06-03T23:41:22.614Z,17.00
2018-06-03T23:43:52.859Z,16.27
2018-06-03T23:46:22.854Z,16.03
2018-06-03T23:48:53.155Z,15.83
2018-06-03T23:51:23.416Z,21.10
2018-06-03T23:53:53.692Z,17.80
2018-06-03T23:56:24.034Z,16.87
2018-06-03T23:58:54.481Z,16.50
